El Cerrito, CA (94530)

1:38 PM PDT on October 01, 2014 (GMT -0700)
near Huber Park | Change Station
CLOSE
Current Station
Personal Weather Station
Location: El Cerrito, CA
Elevation: 270 ft
Nearby Weather Stations
Active Advisory: Heat Advisory

Elev 270 ft 37.91 °N, 122.29 °W | Updated 5 minutes ago

Clear
Clear
84.6 °F
Feels Like 82 °F
N
2.0
Wind Variable Wind from South
Gusts 3.0 mph

Today
High -- | Low -- °F
--% Chance of Precip.
Yesterday
High -- | Low -- °F
Precip. -- in
7:04 AM 6:52 PM
Waxing Crescent, 51% visible
Pressure 29.92 in
Visibility 10.0 miles
Clouds Clear
Heat Index 82 °F
Dew Point 47 °F
Humidity 27%
Rainfall 0.00 in
Snow Depth 0 in , 0 in , 0 in
UV 7 out of 12
Pollen 3.60 out of 12
PM2.5 Moderate
Flu Activity Not available.
METAR KOAK 302053Z 28009KT 10SM CLR 21/14 A2992 RMK AO2 SLP131 T02060139 58018

More Conditions Fewer Conditions

Pressure 29.92 in
Visibility 10.0 miles
Clouds Clear
Heat Index 82 °F
Dew Point 47 °F
Humidity 27%
Rainfall 0.00 in
Snow Depth 0 in , 0 in , 0 in
UV 7 out of 12
Pollen 3.60 out of 12
PM2.5 Moderate
Flu Activity Not available.
METAR KOAK 302053Z 28009KT 10SM CLR 21/14 A2992 RMK AO2 SLP131 T02060139 58018

More Conditions Fewer Conditions

10-Day Weather Forecast

Almanac

Astronomy

Oct. 01, 2014 Rise Set
Actual Time 7:04 AM PDT 6:52 PM PDT
Civil Twilight 6:38 AM PDT 7:18 PM PDT
Nautical Twilight 6:08 AM PDT 7:48 PM PDT
Astronomical Twilight 5:37 AM PDT 8:19 PM PDT
Moon 2:06 PM PDT No Moon Set
Length of Visible Light 12h 39m
Length of Day
11h 47m
Tomorrow will be 2m 24s shorter.
Waxing Crescent, 51% of the Moon is Illuminated
Today
Waxing Crescent
Oct 8
Full
Oct 15
Last Quarter
Oct 23
New
Oct 30
First Quarter

Today's Extremes

State Highs State Lows

Community

WunderPhotos

Upload Photos

1,758,037 photos uploaded!

WunderBlogs® & News

By Dr. Jeff Masters
Director of Meteorology, Weather Underground
By Kari Strenfel
Meteorologist, Weather Underground
By Christopher C. Burt
Weather Historian, Weather Underground
October 1, 2014
October 1, 2014
October 1, 2014

Nearby

Air Quality

  Air Quality AQ Index Pollutant
Yesterday Good
PM2.5
Yesterday Good
OZONE
Current Moderate
PM2.5
Wednesday Good
PM2.5
Thursday Moderate
NO2
Friday Moderate
NO2
Saturday Moderate
PM2.5
Sunday Moderate
PM2.5
Monday Moderate
PM2.5

Snow Depth

Station Depth Elevation
Horse Meadow 0 in 8631 ft
Adin Mountain 0 in 6200 ft
Spratt Creek 0 in 6200 ft
Sonora Pass 0 in 8800 ft
Rubicon #2 1 in 7500 ft

Earthquake Activity

City Distance Mag. Time & Date
South Dos Palos, California 119 miles 3.0 11:17 AM PDT
2014-10-01
East Foothills, California 42 miles 2.6 3:34 PM PDT
2014-09-30
South Dos Palos, California 119 miles 2.7 3:08 PM PDT
2014-09-30
South Dos Palos, California 119 miles 2.5 9:18 PM PDT
2014-09-29
Minimum magnitude displayed is 2.5.

Coastal Water Temperatures

Place Temperature
San Francisco, CA 66.0 °F
Richmond, CA 66.9 °F
Port Chicago, CA 69.1 °F

Nearby Weather Stations